Terminal Aerodrome Forecast
Issued by NWS Mt. Holly, NJ

Home | Current Version | Previous Version | Text Only | Print | Product List | Glossary On
Versions: 1 2 3 4 5 6 7 8 9 10 11 12 13 14 15 16 17 18 19 20 21
000
FTUS41 KPHI 301509 AAB
TAFACY
TAF AMD
KACY 301509Z 3015/3112 18010KT P6SM SCT015 SCT045
      TEMPO 3015/3017 BKN015 BKN045
     FM301700 20010KT P6SM SCT045
     FM302100 21010KT P6SM BKN045
      TEMPO 3021/3024 4SM -TSRA BR OVC025CB
     FM310600 27005KT P6SM OVC250
     FM311100 31006KT P6SM SKC=

USA.gov is the U.S. government's official web portal to all federal, state and local government web resources and services.